Terminal Aerodrome Forecast
Issued by NWS

Current Version | Previous Version | Text Only | Print | Product List | Glossary Off
Versions: 1 2 3 4 5 6 7 8 9 10 11 12 13 14 15 16 17 18 19 20 21 22

000
FTUS41 KPBZ 272323
TAFMGW
TAF
KMGW 272323Z 2800/2824 VRB04KT P6SM BKN100
     FM280900 17004KT 3SM -SHRA BR OVC060
     FM281300 21004KT 2SM -SHRA BR OVC015
     FM281900 27005KT 3SM -SHRA BR OVC010
     FM282100 32007KT P6SM OVC015=

USA.gov is the U.S. government's official web portal to all federal, state and local government web resources and services.